createdAt,value
2022-07-30T00:00:33.144Z,20.11
2022-07-30T00:01:37.622Z,20.08
2022-07-30T00:02:42.076Z,20.04
2022-07-30T00:03:46.567Z,20.02
2022-07-30T00:04:50.989Z,19.99
2022-07-30T00:05:55.443Z,19.96
2022-07-30T00:07:00.157Z,19.93
2022-07-30T00:08:04.375Z,19.91
2022-07-30T00:09:08.857Z,19.88
2022-07-30T00:10:13.341Z,19.86
2022-07-30T00:11:17.797Z,19.84
2022-07-30T00:12:22.256Z,19.82
2022-07-30T00:13:26.811Z,19.80
2022-07-30T00:14:31.267Z,19.79
2022-07-30T00:15:35.716Z,19.77
2022-07-30T00:16:40.201Z,19.76
2022-07-30T00:17:46.720Z,19.75
2022-07-30T00:18:49.117Z,19.73
2022-07-30T00:19:53.684Z,19.72
2022-07-30T00:20:58.064Z,19.71
2022-07-30T00:22:02.520Z,19.70
2022-07-30T00:23:07.005Z,19.67
2022-07-30T00:24:11.467Z,19.65
2022-07-30T00:25:15.918Z,19.64
2022-07-30T00:26:20.376Z,19.63
2022-07-30T00:27:24.837Z,19.63
2022-07-30T00:28:29.341Z,19.64
2022-07-30T00:29:33.788Z,19.65
2022-07-30T00:30:38.282Z,19.68
2022-07-30T00:31:42.711Z,19.69
2022-07-30T00:32:47.187Z,19.72
2022-07-30T00:33:51.659Z,19.75
2022-07-30T00:34:56.119Z,19.78
2022-07-30T00:36:00.644Z,19.81
2022-07-30T00:37:05.098Z,19.85
2022-07-30T00:38:09.580Z,19.88
2022-07-30T00:39:14.070Z,19.92
2022-07-30T00:40:18.539Z,19.95
2022-07-30T00:41:23.000Z,19.99
2022-07-30T00:42:27.461Z,20.01
2022-07-30T00:43:31.951Z,20.04
2022-07-30T00:44:36.422Z,20.06
2022-07-30T00:45:40.961Z,20.09
2022-07-30T00:46:45.361Z,20.12
2022-07-30T00:47:49.829Z,20.15
2022-07-30T00:48:54.413Z,20.17
2022-07-30T00:49:58.801Z,20.19
2022-07-30T00:51:03.309Z,20.21
2022-07-30T00:52:07.723Z,20.22
2022-07-30T00:53:12.206Z,20.24
2022-07-30T00:54:16.673Z,20.25
2022-07-30T00:55:21.164Z,20.25
2022-07-30T00:56:25.623Z,20.25
2022-07-30T00:57:30.095Z,20.24
2022-07-30T00:58:34.592Z,20.23
2022-07-30T00:59:39.053Z,20.21
2022-07-30T01:00:43.538Z,20.19
2022-07-30T01:01:48.006Z,20.17
2022-07-30T01:02:52.451Z,20.14
2022-07-30T01:03:56.951Z,20.11
2022-07-30T01:05:01.404Z,20.08
2022-07-30T01:06:05.892Z,20.05
2022-07-30T01:07:10.346Z,20.03
2022-07-30T01:08:14.846Z,20.00
2022-07-30T01:09:19.325Z,19.96
2022-07-30T01:10:23.795Z,19.94
2022-07-30T01:11:28.247Z,19.90
2022-07-30T01:12:32.717Z,19.87
2022-07-30T01:13:37.187Z,19.84
2022-07-30T01:14:41.669Z,19.82
2022-07-30T01:15:46.153Z,19.79
2022-07-30T01:16:50.691Z,19.76
2022-07-30T01:17:55.085Z,19.73
2022-07-30T01:18:59.595Z,19.72
2022-07-30T01:20:04.064Z,19.70
2022-07-30T01:21:08.536Z,19.69
2022-07-30T01:22:12.999Z,19.68
2022-07-30T01:23:17.475Z,19.65
2022-07-30T01:24:21.959Z,19.64
2022-07-30T01:25:26.427Z,19.63
2022-07-30T01:26:30.887Z,19.62
2022-07-30T01:27:35.361Z,19.60
2022-07-30T01:28:39.818Z,19.60
2022-07-30T01:29:44.300Z,19.58
2022-07-30T01:30:50.038Z,19.57
2022-07-30T01:33:19.123Z,19.28
2022-07-30T01:34:23.615Z,19.39
2022-07-30T01:35:28.048Z,19.44
2022-07-30T01:36:32.505Z,19.46
2022-07-30T01:37:36.945Z,19.46
2022-07-30T01:38:41.394Z,19.45
2022-07-30T01:39:45.859Z,19.43
2022-07-30T01:40:50.314Z,19.41
2022-07-30T01:41:54.753Z,19.40
2022-07-30T01:42:59.198Z,19.38
2022-07-30T01:44:03.644Z,19.36
2022-07-30T01:45:08.106Z,19.34
2022-07-30T01:46:12.628Z,19.31
2022-07-30T01:47:16.997Z,19.30
2022-07-30T01:48:21.447Z,19.28
2022-07-30T01:49:25.975Z,19.26
2022-07-30T01:50:30.349Z,19.24
2022-07-30T01:51:37.620Z,19.22
2022-07-30T01:52:39.251Z,19.20
2022-07-30T01:53:43.696Z,19.18
2022-07-30T01:54:48.149Z,19.17
2022-07-30T01:55:52.612Z,19.15
2022-07-30T01:56:57.426Z,19.13
2022-07-30T01:58:01.499Z,19.12
2022-07-30T01:59:05.945Z,19.11
2022-07-30T02:00:10.419Z,19.10
2022-07-30T02:01:14.890Z,19.08
2022-07-30T02:02:19.300Z,19.07
2022-07-30T02:03:23.833Z,19.05
2022-07-30T02:04:28.212Z,19.04
2022-07-30T02:05:32.679Z,19.03
2022-07-30T02:06:37.120Z,19.01
2022-07-30T02:07:41.550Z,19.00
2022-07-30T02:08:46.020Z,18.99
2022-07-30T02:09:50.471Z,18.98
2022-07-30T02:10:54.941Z,18.97
2022-07-30T02:11:59.420Z,18.96
2022-07-30T02:13:03.861Z,18.94
2022-07-30T02:14:08.302Z,18.93
2022-07-30T02:15:12.773Z,18.91
2022-07-30T02:16:17.298Z,18.89
2022-07-30T02:17:21.690Z,18.87
2022-07-30T02:18:26.131Z,18.85
2022-07-30T02:19:32.805Z,18.83
2022-07-30T02:20:35.799Z,18.81
2022-07-30T02:21:39.513Z,18.80
2022-07-30T02:22:43.954Z,18.78
2022-07-30T02:23:48.411Z,18.77
2022-07-30T02:24:52.856Z,18.75
2022-07-30T02:25:57.324Z,18.74
2022-07-30T02:27:02.237Z,18.71
2022-07-30T02:28:06.247Z,18.70
2022-07-30T02:29:11.594Z,18.68
2022-07-30T02:30:15.174Z,18.67
2022-07-30T02:31:19.645Z,18.66
2022-07-30T02:32:24.056Z,18.64
2022-07-30T02:33:28.506Z,18.63
2022-07-30T02:34:32.944Z,18.62
2022-07-30T02:35:37.412Z,18.61
2022-07-30T02:36:41.855Z,18.59
2022-07-30T02:37:46.313Z,18.58
2022-07-30T02:38:50.807Z,18.56
2022-07-30T02:39:55.206Z,18.55
2022-07-30T02:40:59.686Z,18.54
2022-07-30T02:42:04.136Z,18.54
2022-07-30T02:43:08.576Z,18.52
2022-07-30T02:44:13.036Z,18.52
2022-07-30T02:45:17.577Z,18.52
2022-07-30T02:46:22.074Z,18.51
2022-07-30T02:47:26.477Z,18.52
2022-07-30T02:48:34.298Z,18.52
2022-07-30T02:49:35.366Z,18.53
2022-07-30T02:50:39.868Z,18.54
2022-07-30T02:51:44.317Z,18.55
2022-07-30T02:52:48.776Z,18.55
2022-07-30T02:53:53.217Z,18.56
2022-07-30T02:54:57.671Z,18.56
2022-07-30T02:56:02.137Z,18.56
2022-07-30T02:57:06.577Z,18.56
2022-07-30T02:58:11.027Z,18.55
2022-07-30T02:59:15.484Z,18.55
2022-07-30T03:00:19.949Z,18.55
2022-07-30T03:01:24.418Z,18.55
2022-07-30T03:02:29.822Z,18.55
2022-07-30T03:03:33.309Z,18.56
2022-07-30T03:04:37.769Z,18.56
2022-07-30T03:05:42.239Z,18.57
2022-07-30T03:06:46.680Z,18.57
2022-07-30T03:07:51.139Z,18.57
2022-07-30T03:08:55.611Z,18.57
2022-07-30T03:10:00.050Z,18.57
2022-07-30T03:11:04.525Z,18.57
2022-07-30T03:12:08.980Z,18.57
2022-07-30T03:13:13.431Z,18.56
2022-07-30T03:14:17.887Z,18.55
2022-07-30T03:15:22.333Z,18.53
2022-07-30T03:16:26.881Z,18.52
2022-07-30T03:18:57.195Z,18.20
2022-07-30T03:20:01.676Z,18.31
2022-07-30T03:21:06.135Z,18.36
2022-07-30T03:22:10.591Z,18.37
2022-07-30T03:23:15.034Z,18.38
2022-07-30T03:24:19.475Z,18.37
2022-07-30T03:25:23.925Z,18.35
2022-07-30T03:26:28.395Z,18.35
2022-07-30T03:27:32.837Z,18.33
2022-07-30T03:28:37.312Z,18.32
2022-07-30T03:29:41.754Z,18.30
2022-07-30T03:30:46.225Z,18.29
2022-07-30T03:31:50.739Z,18.27
2022-07-30T03:32:55.155Z,18.25
2022-07-30T03:33:59.600Z,18.24
2022-07-30T03:35:06.641Z,18.22
2022-07-30T03:36:08.527Z,18.21
2022-07-30T03:37:12.963Z,18.19
2022-07-30T03:38:17.406Z,18.18
2022-07-30T03:39:21.863Z,18.16
2022-07-30T03:40:26.316Z,18.15
2022-07-30T03:41:30.778Z,18.13
2022-07-30T03:42:35.238Z,18.12
2022-07-30T03:43:39.677Z,18.11
2022-07-30T03:44:44.127Z,18.09
2022-07-30T03:45:48.578Z,18.07
2022-07-30T03:46:53.102Z,18.06
2022-07-30T03:47:57.510Z,18.05
2022-07-30T03:49:02.039Z,18.04
2022-07-30T03:50:06.421Z,18.02
2022-07-30T03:51:10.887Z,18.01
2022-07-30T03:52:15.348Z,17.99
2022-07-30T03:53:19.797Z,17.98
2022-07-30T03:54:24.262Z,17.97
2022-07-30T03:55:28.699Z,17.96
2022-07-30T03:56:33.178Z,17.95
2022-07-30T03:57:37.629Z,17.94
2022-07-30T03:58:42.096Z,17.94
2022-07-30T03:59:46.550Z,17.93
2022-07-30T04:00:51.009Z,17.92
2022-07-30T04:01:55.596Z,17.91
2022-07-30T04:02:59.972Z,17.91
2022-07-30T04:04:04.458Z,17.90
2022-07-30T04:05:08.864Z,17.89
2022-07-30T04:06:13.320Z,17.89
2022-07-30T04:07:17.789Z,17.88
2022-07-30T04:08:22.250Z,17.88
2022-07-30T04:09:26.706Z,17.87
2022-07-30T04:10:31.171Z,17.87
2022-07-30T04:11:41.332Z,17.86
2022-07-30T04:12:40.093Z,17.86
2022-07-30T04:13:44.542Z,17.86
2022-07-30T04:14:48.992Z,17.86
2022-07-30T04:16:17.741Z,17.86
2022-07-30T04:16:58.282Z,17.86
2022-07-30T04:18:02.372Z,17.87
2022-07-30T04:19:06.823Z,17.87
2022-07-30T04:20:14.216Z,17.87
2022-07-30T04:21:16.060Z,17.88
2022-07-30T04:22:20.254Z,17.88
2022-07-30T04:23:24.723Z,17.89
2022-07-30T04:24:29.173Z,17.89
2022-07-30T04:25:33.636Z,17.89
2022-07-30T04:26:38.094Z,17.90
2022-07-30T04:28:03.013Z,17.90
2022-07-30T04:28:47.034Z,17.90
2022-07-30T04:29:51.482Z,17.90
2022-07-30T04:30:55.953Z,17.90
2022-07-30T04:32:00.428Z,17.90
2022-07-30T04:33:04.878Z,17.90
2022-07-30T04:34:09.344Z,17.91
2022-07-30T04:35:13.795Z,17.92
2022-07-30T04:36:18.254Z,17.92
2022-07-30T04:37:22.726Z,17.93
2022-07-30T04:38:27.177Z,17.93
2022-07-30T04:39:31.637Z,17.93
2022-07-30T04:40:36.087Z,17.93
2022-07-30T04:41:48.458Z,17.94
2022-07-30T04:42:45.014Z,17.94
2022-07-30T04:43:49.466Z,17.96
2022-07-30T04:59:58.302Z,16.80
2022-07-30T05:01:02.742Z,17.07
2022-07-30T05:02:07.199Z,17.26
2022-07-30T05:04:37.503Z,17.30
2022-07-30T05:05:42.025Z,17.55
2022-07-30T05:06:46.443Z,17.72
2022-07-30T05:07:50.911Z,17.86
2022-07-30T05:08:55.353Z,17.98
2022-07-30T05:09:59.823Z,18.09
2022-07-30T05:11:04.270Z,18.19
2022-07-30T05:12:08.714Z,18.29
2022-07-30T05:13:13.238Z,18.37
2022-07-30T05:14:17.614Z,18.45
2022-07-30T05:15:22.076Z,18.52
2022-07-30T05:16:26.532Z,18.59
2022-07-30T05:17:30.964Z,18.65
2022-07-30T05:18:35.391Z,18.71
2022-07-30T05:19:39.834Z,18.77
2022-07-30T05:20:44.265Z,18.82
2022-07-30T05:21:48.714Z,18.88
2022-07-30T05:22:53.190Z,18.93
2022-07-30T05:23:57.634Z,18.98
2022-07-30T05:25:02.068Z,19.03
2022-07-30T05:26:06.504Z,19.08
2022-07-30T05:27:10.935Z,19.13
2022-07-30T05:28:15.425Z,19.16
2022-07-30T05:29:20.367Z,19.20
2022-07-30T05:30:27.492Z,19.22
2022-07-30T05:31:28.732Z,19.26
2022-07-30T05:32:33.147Z,19.28
2022-07-30T05:33:40.961Z,19.31
2022-07-30T05:34:42.047Z,19.36
2022-07-30T05:35:46.476Z,19.39
2022-07-30T05:36:50.925Z,19.43
2022-07-30T05:37:55.368Z,19.48
2022-07-30T05:38:59.820Z,19.54
2022-07-30T05:40:04.246Z,19.58
2022-07-30T05:41:19.114Z,19.62
2022-07-30T05:42:13.127Z,19.66
2022-07-30T05:43:17.587Z,19.71
2022-07-30T05:44:24.008Z,19.74
2022-07-30T05:45:26.573Z,19.78
2022-07-30T05:46:31.052Z,19.82
2022-07-30T05:47:35.436Z,19.85
2022-07-30T05:48:39.924Z,19.89
2022-07-30T05:49:44.338Z,19.92
2022-07-30T05:50:48.768Z,19.95
2022-07-30T05:51:53.210Z,19.97
2022-07-30T05:52:57.639Z,19.99
2022-07-30T05:54:02.091Z,20.01
2022-07-30T05:55:06.520Z,20.04
2022-07-30T05:56:10.941Z,20.07
2022-07-30T05:57:15.359Z,20.10
2022-07-30T05:58:19.820Z,20.13
2022-07-30T05:59:24.239Z,20.16
2022-07-30T06:00:28.691Z,20.20
2022-07-30T06:01:33.182Z,20.23
2022-07-30T06:02:37.569Z,20.24
2022-07-30T06:03:42.030Z,20.26
2022-07-30T06:04:46.593Z,20.29
2022-07-30T06:05:50.892Z,20.32
2022-07-30T06:06:55.321Z,20.34
2022-07-30T06:07:59.760Z,20.37
2022-07-30T06:09:04.215Z,20.41
2022-07-30T06:10:08.640Z,20.44
2022-07-30T06:11:13.071Z,20.48
2022-07-30T06:12:17.502Z,20.51
2022-07-30T06:13:21.932Z,20.56
2022-07-30T06:14:26.392Z,20.61
2022-07-30T06:15:30.857Z,20.64
2022-07-30T06:16:35.247Z,20.67
2022-07-30T06:17:41.288Z,20.70
2022-07-30T06:18:44.120Z,20.72
2022-07-30T06:19:48.553Z,20.74
2022-07-30T06:20:53.005Z,20.76
2022-07-30T06:22:06.321Z,20.79
2022-07-30T06:23:01.896Z,20.81
2022-07-30T06:24:06.335Z,20.85
2022-07-30T06:25:10.753Z,20.88
2022-07-30T06:26:15.194Z,20.91
2022-07-30T06:27:19.622Z,20.94
2022-07-30T06:28:39.810Z,20.95
2022-07-30T06:29:28.506Z,21.00
2022-07-30T06:30:32.961Z,21.03
2022-07-30T06:31:37.373Z,21.07
2022-07-30T06:32:41.805Z,21.12
2022-07-30T06:33:46.265Z,21.16
2022-07-30T06:34:57.291Z,21.20
2022-07-30T06:35:55.160Z,21.24
2022-07-30T06:36:59.797Z,21.28
2022-07-30T06:38:07.261Z,21.32
2022-07-30T06:39:08.587Z,21.35
2022-07-30T06:40:13.005Z,21.41
2022-07-30T06:41:17.436Z,21.45
2022-07-30T06:42:21.880Z,21.50
2022-07-30T06:43:26.324Z,21.56
2022-07-30T06:44:30.769Z,21.59
2022-07-30T06:45:35.198Z,21.62
2022-07-30T06:46:39.688Z,21.65
2022-07-30T06:47:44.065Z,21.67
2022-07-30T06:48:48.583Z,21.69
2022-07-30T06:49:52.988Z,21.71
2022-07-30T06:50:57.427Z,21.74
2022-07-30T06:52:01.859Z,21.76
2022-07-30T06:53:06.297Z,21.80
2022-07-30T06:54:10.748Z,21.84
2022-07-30T06:55:15.201Z,21.89
2022-07-30T06:56:19.643Z,21.94
2022-07-30T06:57:24.106Z,22.00
2022-07-30T06:58:28.527Z,22.07
2022-07-30T06:59:32.983Z,22.10
2022-07-30T07:00:37.427Z,22.14
2022-07-30T07:01:41.894Z,22.17
2022-07-30T07:02:46.290Z,22.19
2022-07-30T07:03:50.769Z,22.22
2022-07-30T07:04:55.200Z,22.24
2022-07-30T07:05:59.631Z,22.28
2022-07-30T07:07:12.177Z,22.31
2022-07-30T07:08:08.509Z,22.37
2022-07-30T07:09:12.970Z,22.43
2022-07-30T07:10:17.423Z,22.46
2022-07-30T07:11:21.850Z,22.49
2022-07-30T07:12:26.290Z,22.53
2022-07-30T07:13:30.730Z,22.58
2022-07-30T07:14:35.208Z,22.64
2022-07-30T07:15:39.632Z,22.69
2022-07-30T07:16:44.115Z,22.74
2022-07-30T07:17:48.492Z,22.80
2022-07-30T07:18:52.992Z,22.83
2022-07-30T07:20:01.163Z,22.86
2022-07-30T07:21:01.872Z,22.90
2022-07-30T07:22:06.291Z,22.93
2022-07-30T07:23:12.270Z,22.94
2022-07-30T07:24:15.182Z,22.96
2022-07-30T07:25:19.604Z,23.00
2022-07-30T07:26:24.042Z,23.04
2022-07-30T07:27:28.475Z,23.08
2022-07-30T07:28:33.492Z,23.12
2022-07-30T07:29:37.367Z,23.16
2022-07-30T07:30:42.009Z,23.20
2022-07-30T07:32:05.526Z,23.25
2022-07-30T07:32:50.683Z,23.32
2022-07-30T07:33:55.114Z,23.39
2022-07-30T07:34:59.574Z,23.47
2022-07-30T07:36:03.994Z,23.53
2022-07-30T07:37:08.455Z,23.58
2022-07-30T07:38:12.891Z,23.63
2022-07-30T07:39:17.314Z,23.68
2022-07-30T07:40:21.778Z,23.76
2022-07-30T07:41:26.224Z,23.81
2022-07-30T07:42:30.645Z,23.85
2022-07-30T07:43:35.076Z,23.89
2022-07-30T07:44:39.536Z,23.91
2022-07-30T07:45:44.017Z,23.93
2022-07-30T07:46:48.481Z,23.97
2022-07-30T07:47:53.475Z,24.01
2022-07-30T07:48:57.332Z,24.05
2022-07-30T07:50:01.727Z,24.07
2022-07-30T07:51:09.585Z,24.12
2022-07-30T07:52:10.610Z,24.17
2022-07-30T07:53:15.028Z,24.22
2022-07-30T07:54:22.078Z,24.25
2022-07-30T07:55:23.916Z,24.30
2022-07-30T07:56:28.379Z,24.35
2022-07-30T07:57:32.797Z,24.38
2022-07-30T07:58:38.295Z,24.40
2022-07-30T07:59:41.732Z,24.43
2022-07-30T08:00:46.143Z,24.44
2022-07-30T08:01:50.568Z,24.45
2022-07-30T08:02:55.058Z,24.46
2022-07-30T08:03:59.430Z,24.48
2022-07-30T08:05:03.881Z,24.53
2022-07-30T08:06:12.016Z,24.56
2022-07-30T08:07:12.764Z,24.59
2022-07-30T08:08:17.157Z,24.64
2022-07-30T08:09:21.579Z,24.69
2022-07-30T08:10:26.060Z,24.75
2022-07-30T08:11:30.480Z,24.80
2022-07-30T08:12:35.851Z,24.87
2022-07-30T08:13:48.018Z,24.91
2022-07-30T08:14:44.740Z,24.95
2022-07-30T08:15:49.190Z,24.98
2022-07-30T08:16:53.711Z,25.00
2022-07-30T08:17:58.049Z,25.01
2022-07-30T08:19:02.478Z,25.03
2022-07-30T08:20:06.930Z,25.03
2022-07-30T08:21:11.340Z,25.04
2022-07-30T08:22:15.794Z,25.07
2022-07-30T08:23:20.212Z,25.09
2022-07-30T08:24:24.658Z,25.10
2022-07-30T08:25:29.104Z,25.13
2022-07-30T08:26:33.542Z,25.16
2022-07-30T08:27:37.964Z,25.19
2022-07-30T08:28:42.403Z,25.23
2022-07-30T08:29:46.855Z,25.28
2022-07-30T08:30:51.273Z,25.32
2022-07-30T08:31:55.702Z,25.36
2022-07-30T08:33:00.132Z,25.41
2022-07-30T08:34:04.592Z,25.46
2022-07-30T08:35:09.022Z,25.50
2022-07-30T08:36:13.442Z,25.53
2022-07-30T08:37:17.894Z,25.57
2022-07-30T08:38:22.325Z,25.61
2022-07-30T08:39:26.764Z,25.65
2022-07-30T08:40:31.247Z,25.68
2022-07-30T08:41:35.679Z,25.70
2022-07-30T08:42:40.088Z,25.72
2022-07-30T08:43:44.534Z,25.75
2022-07-30T08:44:48.954Z,25.77
2022-07-30T08:45:53.417Z,25.79
2022-07-30T08:46:57.835Z,25.81
2022-07-30T08:48:02.254Z,25.82
2022-07-30T08:49:10.820Z,25.82
2022-07-30T08:50:11.152Z,25.83
2022-07-30T08:51:15.594Z,25.84
2022-07-30T08:52:20.049Z,25.86
2022-07-30T08:53:24.477Z,25.88
2022-07-30T08:54:28.928Z,25.90
2022-07-30T08:55:33.367Z,25.94
2022-07-30T08:56:37.816Z,25.99
2022-07-30T08:57:42.247Z,26.02
2022-07-30T08:58:46.687Z,26.05
2022-07-30T09:00:00.080Z,26.04
2022-07-30T09:02:00.236Z,26.07
2022-07-30T09:03:04.462Z,26.09
2022-07-30T09:04:08.891Z,26.15
2022-07-30T09:05:13.327Z,26.17
2022-07-30T09:06:17.768Z,26.16
2022-07-30T09:07:22.218Z,26.16
2022-07-30T09:08:26.648Z,26.20
2022-07-30T09:09:31.516Z,26.20
2022-07-30T09:10:35.530Z,26.20
2022-07-30T09:11:39.968Z,26.24
2022-07-30T09:12:44.387Z,26.27
2022-07-30T09:13:48.809Z,26.30
2022-07-30T09:14:53.267Z,26.35
2022-07-30T09:15:57.720Z,26.38
2022-07-30T09:17:02.526Z,26.40
2022-07-30T09:18:06.590Z,26.41
2022-07-30T09:19:11.020Z,26.44
2022-07-30T09:20:15.488Z,26.49
2022-07-30T09:21:19.922Z,26.51
2022-07-30T09:22:24.350Z,26.52
2022-07-30T09:23:28.782Z,26.54
2022-07-30T09:24:33.200Z,26.56
2022-07-30T09:25:37.657Z,26.60
2022-07-30T09:26:42.077Z,26.67
2022-07-30T09:27:46.505Z,26.70
2022-07-30T09:28:50.933Z,26.74
2022-07-30T09:29:55.372Z,26.75
2022-07-30T09:30:59.812Z,26.77
2022-07-30T09:32:04.709Z,26.81
2022-07-30T09:33:08.680Z,26.85
2022-07-30T09:34:13.193Z,26.86
2022-07-30T09:35:17.581Z,26.85
2022-07-30T09:36:22.053Z,26.84
2022-07-30T09:37:26.476Z,26.84
2022-07-30T09:38:30.914Z,26.87
2022-07-30T09:39:35.335Z,26.91
2022-07-30T09:40:39.772Z,26.91
2022-07-30T09:41:44.213Z,26.89
2022-07-30T09:42:48.670Z,26.90
2022-07-30T09:43:53.083Z,26.92
2022-07-30T09:44:57.513Z,26.95
2022-07-30T09:46:01.962Z,26.98
2022-07-30T09:47:06.386Z,27.01
2022-07-30T09:48:10.795Z,27.04
2022-07-30T09:49:15.301Z,27.06
2022-07-30T09:50:30.045Z,27.05
2022-07-30T09:51:24.133Z,27.03
2022-07-30T09:52:29.105Z,27.02
2022-07-30T09:53:32.964Z,27.01
2022-07-30T09:54:37.389Z,27.02
2022-07-30T09:55:42.309Z,27.06
2022-07-30T09:56:53.825Z,27.09
2022-07-30T09:57:53.110Z,27.14
2022-07-30T09:58:55.125Z,27.17
2022-07-30T09:59:59.911Z,27.18
2022-07-30T10:01:04.008Z,27.21
2022-07-30T10:02:09.972Z,27.26
2022-07-30T10:03:33.193Z,27.30
2022-07-30T10:04:17.305Z,27.34
2022-07-30T10:05:21.728Z,27.38
2022-07-30T10:06:26.186Z,27.42
2022-07-30T10:07:30.599Z,27.50
2022-07-30T10:08:35.050Z,27.57
2022-07-30T10:09:39.475Z,27.62
2022-07-30T10:10:46.945Z,27.67
2022-07-30T10:11:48.338Z,27.67
2022-07-30T10:12:52.758Z,27.69
2022-07-30T10:13:57.181Z,27.73
2022-07-30T10:15:01.627Z,27.78
2022-07-30T10:16:06.051Z,27.84
2022-07-30T10:17:10.501Z,27.90
2022-07-30T10:18:14.938Z,27.91
2022-07-30T10:19:23.418Z,27.91
2022-07-30T10:20:23.798Z,27.90
2022-07-30T10:21:28.243Z,27.93
2022-07-30T10:22:32.689Z,27.95
2022-07-30T10:23:37.130Z,27.95
2022-07-30T10:24:41.549Z,27.99
2022-07-30T10:25:49.468Z,28.00
2022-07-30T10:26:50.411Z,27.99
2022-07-30T10:27:57.867Z,27.96
2022-07-30T10:28:59.290Z,27.98
2022-07-30T10:30:04.281Z,28.03
2022-07-30T10:31:47.059Z,28.08
2022-07-30T10:32:12.614Z,28.11
2022-07-30T10:33:34.749Z,28.19
2022-07-30T10:34:23.564Z,28.25
2022-07-30T10:35:34.864Z,28.29
2022-07-30T10:36:30.344Z,28.30
2022-07-30T10:37:34.781Z,28.29
2022-07-30T10:38:41.631Z,28.31
2022-07-30T10:39:43.631Z,28.32
2022-07-30T10:40:48.061Z,28.31
2022-07-30T10:41:54.180Z,28.33
2022-07-30T10:42:56.932Z,28.42
2022-07-30T10:44:01.352Z,28.49
2022-07-30T10:45:05.814Z,28.52
2022-07-30T10:46:20.140Z,28.53
2022-07-30T10:47:14.681Z,28.52
2022-07-30T10:48:19.121Z,28.52
2022-07-30T10:49:23.565Z,28.54
2022-07-30T10:50:28.023Z,28.55
2022-07-30T10:51:34.444Z,28.61
2022-07-30T10:52:36.882Z,28.66
2022-07-30T10:53:41.312Z,28.71
2022-07-30T10:54:45.738Z,28.77
2022-07-30T10:55:50.183Z,28.86
2022-07-30T10:56:54.612Z,28.88
2022-07-30T10:57:59.062Z,28.86
2022-07-30T10:59:03.485Z,28.82
2022-07-30T11:00:07.917Z,28.80
2022-07-30T11:01:18.392Z,28.83
2022-07-30T11:02:17.768Z,28.88
2022-07-30T11:03:22.126Z,28.97
2022-07-30T11:04:26.940Z,29.08
2022-07-30T11:05:44.202Z,29.16
2022-07-30T11:06:34.562Z,29.22
2022-07-30T11:07:39.022Z,29.26
2022-07-30T11:08:43.445Z,29.33
2022-07-30T11:09:57.977Z,29.39
2022-07-30T11:10:52.307Z,29.40
2022-07-30T11:12:02.200Z,29.43
2022-07-30T11:13:01.186Z,29.52
2022-07-30T11:14:05.607Z,29.58
2022-07-30T11:15:17.375Z,29.65
2022-07-30T11:16:14.459Z,29.69
2022-07-30T11:17:18.880Z,29.75
2022-07-30T11:18:25.023Z,29.72
2022-07-30T11:19:57.063Z,29.78
2022-07-30T11:20:32.182Z,29.89
2022-07-30T11:21:36.598Z,30.03
2022-07-30T11:22:41.040Z,30.17
2022-07-30T11:23:45.478Z,30.30
2022-07-30T11:24:49.899Z,30.38
2022-07-30T11:25:54.716Z,30.46
2022-07-30T11:26:58.766Z,30.52
2022-07-30T11:28:03.218Z,30.62
2022-07-30T11:29:07.633Z,30.68
2022-07-30T11:30:12.073Z,30.83
2022-07-30T11:31:16.448Z,30.93
2022-07-30T11:32:20.877Z,30.83
2022-07-30T11:33:32.036Z,30.75
2022-07-30T11:34:30.751Z,30.73
2022-07-30T11:35:35.179Z,30.67
2022-07-30T11:36:38.611Z,30.56
2022-07-30T11:37:52.193Z,30.44
2022-07-30T11:38:47.480Z,30.37
2022-07-30T11:39:51.892Z,30.42
2022-07-30T11:40:56.322Z,30.48
2022-07-30T11:42:00.990Z,30.60
2022-07-30T11:43:05.219Z,30.77
2022-07-30T11:44:09.653Z,30.99
2022-07-30T11:45:14.081Z,31.24
2022-07-30T11:46:18.511Z,31.49
2022-07-30T11:47:22.931Z,31.66
2022-07-30T11:48:27.381Z,31.78
2022-07-30T11:49:31.866Z,31.86
2022-07-30T11:50:36.235Z,31.91
2022-07-30T11:51:40.674Z,32.02
2022-07-30T11:52:45.092Z,32.18
2022-07-30T11:53:49.557Z,32.29
2022-07-30T11:54:53.962Z,32.33
2022-07-30T11:55:58.409Z,32.35
2022-07-30T11:57:04.818Z,32.41
2022-07-30T11:58:07.249Z,32.50
2022-07-30T11:59:11.683Z,32.57
2022-07-30T12:00:16.100Z,32.64
2022-07-30T12:01:20.523Z,32.74
2022-07-30T12:02:24.963Z,32.83
2022-07-30T12:03:29.875Z,32.91
2022-07-30T12:04:33.824Z,33.03
2022-07-30T12:05:38.244Z,33.10
2022-07-30T12:06:42.663Z,33.25
2022-07-30T12:07:47.077Z,33.38
2022-07-30T12:08:55.101Z,33.44
2022-07-30T12:09:56.004Z,33.43
2022-07-30T12:11:00.365Z,33.26
2022-07-30T12:12:04.785Z,33.15
2022-07-30T12:13:09.216Z,33.08
2022-07-30T12:14:13.644Z,33.11
2022-07-30T12:15:18.057Z,33.25
2022-07-30T12:16:22.541Z,33.45
2022-07-30T12:17:26.916Z,33.68
2022-07-30T12:18:31.368Z,34.01
2022-07-30T12:19:47.787Z,34.49
2022-07-30T12:20:40.252Z,35.14
2022-07-30T12:21:45.847Z,35.89
2022-07-30T12:22:49.076Z,36.61
2022-07-30T12:23:53.507Z,37.25
2022-07-30T12:24:57.928Z,37.89
2022-07-30T12:26:02.379Z,38.45
2022-07-30T12:27:06.806Z,38.96
2022-07-30T12:28:11.291Z,38.83
2022-07-30T12:29:15.710Z,38.63
2022-07-30T12:30:20.138Z,38.60
2022-07-30T12:31:24.542Z,38.73
2022-07-30T12:32:28.960Z,39.07
2022-07-30T12:33:33.380Z,39.43
2022-07-30T12:34:37.826Z,39.86
2022-07-30T12:35:42.240Z,40.33
2022-07-30T12:36:46.650Z,40.73
2022-07-30T12:37:51.087Z,41.13
2022-07-30T12:38:55.529Z,41.67
2022-07-30T12:39:59.940Z,42.25
2022-07-30T12:41:04.358Z,42.73
2022-07-30T12:42:08.770Z,43.08
2022-07-30T12:43:13.436Z,43.14
2022-07-30T12:44:17.631Z,43.10
2022-07-30T12:45:22.040Z,42.43
2022-07-30T12:46:26.464Z,41.93
2022-07-30T12:47:30.877Z,42.03
2022-07-30T12:48:35.300Z,42.33
2022-07-30T12:49:48.593Z,42.24
2022-07-30T12:50:44.144Z,41.44
2022-07-30T12:51:48.558Z,40.52
2022-07-30T12:52:52.961Z,39.79
2022-07-30T12:53:57.372Z,39.89
2022-07-30T12:55:01.794Z,40.43
2022-07-30T12:56:06.205Z,40.94
2022-07-30T12:57:10.602Z,41.16
2022-07-30T12:58:15.004Z,40.72
2022-07-30T12:59:19.433Z,40.15
2022-07-30T13:00:23.907Z,40.39
2022-07-30T13:01:28.345Z,41.08
2022-07-30T13:02:32.654Z,41.74
2022-07-30T13:03:37.054Z,41.52
2022-07-30T13:05:10.176Z,40.56
2022-07-30T13:05:45.882Z,39.57
2022-07-30T13:06:50.284Z,38.78
2022-07-30T13:07:54.705Z,38.24
2022-07-30T13:08:59.113Z,37.74
2022-07-30T13:10:03.544Z,37.78
2022-07-30T13:11:07.945Z,38.64
2022-07-30T13:12:12.334Z,39.69
2022-07-30T13:13:16.729Z,40.70
2022-07-30T13:14:26.531Z,41.70
2022-07-30T13:15:25.556Z,42.56
2022-07-30T13:16:29.986Z,43.28
2022-07-30T13:17:37.753Z,43.76
2022-07-30T13:18:38.776Z,44.16
2022-07-30T13:19:43.201Z,44.37
2022-07-30T13:20:47.578Z,44.75
2022-07-30T13:21:51.966Z,44.44
2022-07-30T13:23:01.538Z,43.71
2022-07-30T13:24:00.749Z,42.68
2022-07-30T13:25:05.169Z,41.81
2022-07-30T13:26:09.570Z,41.00
2022-07-30T13:27:13.966Z,40.21
2022-07-30T13:28:18.368Z,39.54
2022-07-30T13:29:22.753Z,39.38
2022-07-30T13:30:27.171Z,39.29
2022-07-30T13:31:42.809Z,39.09
2022-07-30T13:32:35.999Z,38.95
2022-07-30T13:33:40.399Z,38.90
2022-07-30T13:34:44.810Z,39.72
2022-07-30T13:35:49.222Z,40.88
2022-07-30T13:36:53.609Z,41.90
2022-07-30T13:37:57.981Z,42.83
2022-07-30T13:39:02.379Z,43.01
2022-07-30T13:40:06.828Z,42.22
2022-07-30T13:41:11.201Z,41.94
2022-07-30T13:42:15.573Z,42.58
2022-07-30T13:43:19.961Z,42.48
2022-07-30T13:44:24.373Z,41.99
2022-07-30T13:45:28.773Z,42.04
2022-07-30T13:46:33.150Z,42.70
2022-07-30T13:47:37.551Z,43.49
2022-07-30T13:48:41.967Z,44.17
2022-07-30T13:49:46.303Z,44.76
2022-07-30T13:50:50.692Z,45.08
2022-07-30T13:51:55.094Z,45.57
2022-07-30T13:53:02.309Z,46.15
2022-07-30T13:54:03.868Z,46.67
2022-07-30T13:55:08.251Z,47.08
2022-07-30T13:56:13.197Z,47.38
2022-07-30T13:57:17.010Z,47.72
2022-07-30T13:58:21.373Z,48.00
2022-07-30T13:59:25.744Z,48.28
2022-07-30T14:00:30.136Z,48.41
2022-07-30T14:01:34.571Z,48.56
2022-07-30T14:02:38.874Z,48.73
2022-07-30T14:03:48.455Z,48.82
2022-07-30T14:04:47.601Z,48.95
2022-07-30T14:05:51.988Z,49.01
2022-07-30T14:06:56.345Z,49.20
2022-07-30T14:08:00.723Z,49.25
2022-07-30T14:09:05.084Z,48.74
2022-07-30T14:10:09.503Z,48.67